sensor_id;sensor_type;location;lat;lon;timestamp;temperature;humidity
11840;DHT22;5979;50.800;4.904;2023-11-18T00:01:16;6.30;99.90
11840;DHT22;5979;50.800;4.904;2023-11-18T00:03:41;6.30;99.90
11840;DHT22;5979;50.800;4.904;2023-11-18T00:06:09;6.30;99.90
11840;DHT22;5979;50.800;4.904;2023-11-18T00:08:35;6.30;99.90
11840;DHT22;5979;50.800;4.904;2023-11-18T00:11:01;6.30;99.90
11840;DHT22;5979;50.800;4.904;2023-11-18T00:13:27;6.40;99.90
11840;DHT22;5979;50.800;4.904;2023-11-18T00:15:53;6.40;99.90
11840;DHT22;5979;50.800;4.904;2023-11-18T00:18:18;6.40;99.90
11840;DHT22;5979;50.800;4.904;2023-11-18T00:20:45;6.40;99.90
11840;DHT22;5979;50.800;4.904;2023-11-18T00:23:11;6.30;99.90
11840;DHT22;5979;50.800;4.904;2023-11-18T00:25:36;6.30;99.90
11840;DHT22;5979;50.800;4.904;2023-11-18T00:28:05;6.30;99.90
11840;DHT22;5979;50.800;4.904;2023-11-18T00:30:33;6.30;99.90
11840;DHT22;5979;50.800;4.904;2023-11-18T00:32:59;6.30;99.90
11840;DHT22;5979;50.800;4.904;2023-11-18T00:35:25;6.30;99.90
11840;DHT22;5979;50.800;4.904;2023-11-18T00:37:51;6.30;99.90
11840;DHT22;5979;50.800;4.904;2023-11-18T00:40:16;6.30;99.90
11840;DHT22;5979;50.800;4.904;2023-11-18T00:42:44;6.30;99.90
11840;DHT22;5979;50.800;4.904;2023-11-18T00:45:10;6.20;99.90
11840;DHT22;5979;50.800;4.904;2023-11-18T00:47:38;6.20;99.90
11840;DHT22;5979;50.800;4.904;2023-11-18T00:50:04;6.20;99.90
11840;DHT22;5979;50.800;4.904;2023-11-18T00:52:33;6.20;99.90
11840;DHT22;5979;50.800;4.904;2023-11-18T00:54:59;6.20;99.90
11840;DHT22;5979;50.800;4.904;2023-11-18T00:57:26;6.20;99.90
11840;DHT22;5979;50.800;4.904;2023-11-18T00:59:52;6.20;99.90
11840;DHT22;5979;50.800;4.904;2023-11-18T01:02:18;6.20;99.90
11840;DHT22;5979;50.800;4.904;2023-11-18T01:04:44;6.30;99.90
11840;DHT22;5979;50.800;4.904;2023-11-18T01:07:13;6.30;99.90
11840;DHT22;5979;50.800;4.904;2023-11-18T01:09:38;6.30;99.90
11840;DHT22;5979;50.800;4.904;2023-11-18T01:12:08;6.30;99.90
11840;DHT22;5979;50.800;4.904;2023-11-18T01:14:36;6.30;99.90
11840;DHT22;5979;50.800;4.904;2023-11-18T01:17:04;6.30;99.90
11840;DHT22;5979;50.800;4.904;2023-11-18T01:19:30;6.30;99.90
11840;DHT22;5979;50.800;4.904;2023-11-18T01:21:56;6.30;99.90
11840;DHT22;5979;50.800;4.904;2023-11-18T01:24:22;6.40;99.90
11840;DHT22;5979;50.800;4.904;2023-11-18T01:26:48;6.40;99.90
11840;DHT22;5979;50.800;4.904;2023-11-18T01:29:13;6.40;99.90
11840;DHT22;5979;50.800;4.904;2023-11-18T01:31:39;6.30;99.90
11840;DHT22;5979;50.800;4.904;2023-11-18T01:34:08;6.40;99.90
11840;DHT22;5979;50.800;4.904;2023-11-18T01:36:34;6.40;99.90
11840;DHT22;5979;50.800;4.904;2023-11-18T01:38:59;6.40;99.90
11840;DHT22;5979;50.800;4.904;2023-11-18T01:41:26;6.40;99.90
11840;DHT22;5979;50.800;4.904;2023-11-18T01:43:51;6.40;99.90
11840;DHT22;5979;50.800;4.904;2023-11-18T01:46:19;6.40;99.90
11840;DHT22;5979;50.800;4.904;2023-11-18T01:48:46;6.40;99.90
11840;DHT22;5979;50.800;4.904;2023-11-18T01:51:13;6.40;99.90
11840;DHT22;5979;50.800;4.904;2023-11-18T01:53:40;6.40;99.90
11840;DHT22;5979;50.800;4.904;2023-11-18T01:56:07;6.40;99.90
11840;DHT22;5979;50.800;4.904;2023-11-18T01:58:34;6.50;99.90
11840;DHT22;5979;50.800;4.904;2023-11-18T02:01:02;6.50;99.90
11840;DHT22;5979;50.800;4.904;2023-11-18T02:03:28;6.50;99.90
11840;DHT22;5979;50.800;4.904;2023-11-18T02:05:54;6.50;99.90
11840;DHT22;5979;50.800;4.904;2023-11-18T02:08:19;6.50;99.90
11840;DHT22;5979;50.800;4.904;2023-11-18T02:11:17;6.50;99.90
11840;DHT22;5979;50.800;4.904;2023-11-18T02:13:43;6.50;99.90
11840;DHT22;5979;50.800;4.904;2023-11-18T02:16:11;6.50;99.90
11840;DHT22;5979;50.800;4.904;2023-11-18T02:18:38;6.50;99.90
11840;DHT22;5979;50.800;4.904;2023-11-18T02:21:07;6.50;99.90
11840;DHT22;5979;50.800;4.904;2023-11-18T02:23:33;6.50;99.90
11840;DHT22;5979;50.800;4.904;2023-11-18T02:25:59;6.50;99.90
11840;DHT22;5979;50.800;4.904;2023-11-18T02:28:27;6.50;99.90
11840;DHT22;5979;50.800;4.904;2023-11-18T02:31:05;6.50;99.90
11840;DHT22;5979;50.800;4.904;2023-11-18T02:33:39;6.50;99.90
11840;DHT22;5979;50.800;4.904;2023-11-18T02:36:35;6.40;99.90
11840;DHT22;5979;50.800;4.904;2023-11-18T02:39:05;6.40;99.90
11840;DHT22;5979;50.800;4.904;2023-11-18T02:41:38;6.40;99.90
11840;DHT22;5979;50.800;4.904;2023-11-18T02:44:04;6.40;99.90
11840;DHT22;5979;50.800;4.904;2023-11-18T02:46:36;6.40;99.90
11840;DHT22;5979;50.800;4.904;2023-11-18T02:49:03;6.40;99.90
11840;DHT22;5979;50.800;4.904;2023-11-18T02:51:29;6.30;99.90
11840;DHT22;5979;50.800;4.904;2023-11-18T02:53:59;6.30;99.90
11840;DHT22;5979;50.800;4.904;2023-11-18T02:56:25;6.20;99.90
11840;DHT22;5979;50.800;4.904;2023-11-18T02:58:50;6.20;99.90
11840;DHT22;5979;50.800;4.904;2023-11-18T03:01:16;6.20;99.90
11840;DHT22;5979;50.800;4.904;2023-11-18T03:03:42;6.20;99.90
11840;DHT22;5979;50.800;4.904;2023-11-18T03:06:08;6.20;99.90
11840;DHT22;5979;50.800;4.904;2023-11-18T03:08:34;6.20;99.90
11840;DHT22;5979;50.800;4.904;2023-11-18T03:10:59;6.10;99.90
11840;DHT22;5979;50.800;4.904;2023-11-18T03:13:25;6.10;99.90
11840;DHT22;5979;50.800;4.904;2023-11-18T03:15:51;6.10;99.90
11840;DHT22;5979;50.800;4.904;2023-11-18T03:18:17;6.10;99.90
11840;DHT22;5979;50.800;4.904;2023-11-18T03:20:43;6.10;99.90
11840;DHT22;5979;50.800;4.904;2023-11-18T03:23:09;6.10;99.90
11840;DHT22;5979;50.800;4.904;2023-11-18T03:25:34;6.10;99.90
11840;DHT22;5979;50.800;4.904;2023-11-18T03:28:00;6.20;99.90
11840;DHT22;5979;50.800;4.904;2023-11-18T03:30:26;6.20;99.90
11840;DHT22;5979;50.800;4.904;2023-11-18T03:32:54;6.20;99.90
11840;DHT22;5979;50.800;4.904;2023-11-18T03:35:20;6.20;99.90
11840;DHT22;5979;50.800;4.904;2023-11-18T03:37:46;6.30;99.90
11840;DHT22;5979;50.800;4.904;2023-11-18T03:40:13;6.30;99.90
11840;DHT22;5979;50.800;4.904;2023-11-18T03:42:41;6.40;99.90
11840;DHT22;5979;50.800;4.904;2023-11-18T03:45:07;6.40;99.90
11840;DHT22;5979;50.800;4.904;2023-11-18T03:47:34;6.40;99.90
11840;DHT22;5979;50.800;4.904;2023-11-18T03:50:00;6.40;99.90
11840;DHT22;5979;50.800;4.904;2023-11-18T03:52:26;6.50;99.90
11840;DHT22;5979;50.800;4.904;2023-11-18T03:54:53;6.50;99.90
11840;DHT22;5979;50.800;4.904;2023-11-18T03:57:21;6.50;99.90
11840;DHT22;5979;50.800;4.904;2023-11-18T03:59:46;6.60;99.90
11840;DHT22;5979;50.800;4.904;2023-11-18T04:02:12;6.60;99.90
11840;DHT22;5979;50.800;4.904;2023-11-18T04:04:38;6.60;99.90
11840;DHT22;5979;50.800;4.904;2023-11-18T04:07:04;6.70;99.90
11840;DHT22;5979;50.800;4.904;2023-11-18T04:09:30;6.70;99.90
11840;DHT22;5979;50.800;4.904;2023-11-18T04:11:56;6.70;99.90
11840;DHT22;5979;50.800;4.904;2023-11-18T04:14:22;6.70;99.90
11840;DHT22;5979;50.800;4.904;2023-11-18T04:16:48;6.70;99.90
11840;DHT22;5979;50.800;4.904;2023-11-18T04:19:17;6.80;99.90
11840;DHT22;5979;50.800;4.904;2023-11-18T04:21:43;6.80;99.90
11840;DHT22;5979;50.800;4.904;2023-11-18T04:24:13;6.80;99.90
11840;DHT22;5979;50.800;4.904;2023-11-18T04:27:05;6.80;99.90
11840;DHT22;5979;50.800;4.904;2023-11-18T04:29:31;6.90;99.90
11840;DHT22;5979;50.800;4.904;2023-11-18T04:31:57;6.80;99.90
11840;DHT22;5979;50.800;4.904;2023-11-18T04:34:22;6.80;99.90
11840;DHT22;5979;50.800;4.904;2023-11-18T04:36:48;6.80;99.90
11840;DHT22;5979;50.800;4.904;2023-11-18T04:39:14;6.90;99.90
11840;DHT22;5979;50.800;4.904;2023-11-18T04:41:41;6.90;99.90
11840;DHT22;5979;50.800;4.904;2023-11-18T04:44:07;6.90;99.90
11840;DHT22;5979;50.800;4.904;2023-11-18T04:46:33;6.90;99.90
11840;DHT22;5979;50.800;4.904;2023-11-18T04:48:59;6.90;99.90
11840;DHT22;5979;50.800;4.904;2023-11-18T04:51:27;6.90;99.90
11840;DHT22;5979;50.800;4.904;2023-11-18T04:53:53;6.90;99.90
11840;DHT22;5979;50.800;4.904;2023-11-18T04:56:19;6.90;99.90
11840;DHT22;5979;50.800;4.904;2023-11-18T04:58:45;6.90;99.90
11840;DHT22;5979;50.800;4.904;2023-11-18T05:01:14;6.90;99.90
11840;DHT22;5979;50.800;4.904;2023-11-18T05:03:39;7.00;99.90
11840;DHT22;5979;50.800;4.904;2023-11-18T05:06:24;7.00;99.90
11840;DHT22;5979;50.800;4.904;2023-11-18T05:08:49;7.00;99.90
11840;DHT22;5979;50.800;4.904;2023-11-18T05:11:15;7.00;99.90
11840;DHT22;5979;50.800;4.904;2023-11-18T05:13:41;7.00;99.90
11840;DHT22;5979;50.800;4.904;2023-11-18T05:16:07;7.00;99.90
11840;DHT22;5979;50.800;4.904;2023-11-18T05:18:33;7.00;99.90
11840;DHT22;5979;50.800;4.904;2023-11-18T05:21:02;7.00;99.90
11840;DHT22;5979;50.800;4.904;2023-11-18T05:23:28;7.00;99.90
11840;DHT22;5979;50.800;4.904;2023-11-18T05:25:57;7.00;99.90
11840;DHT22;5979;50.800;4.904;2023-11-18T05:28:26;7.00;99.90
11840;DHT22;5979;50.800;4.904;2023-11-18T05:30:52;7.00;99.90
11840;DHT22;5979;50.800;4.904;2023-11-18T05:33:18;7.00;99.90
11840;DHT22;5979;50.800;4.904;2023-11-18T05:35:45;7.00;99.90
11840;DHT22;5979;50.800;4.904;2023-11-18T05:38:18;7.00;99.90
11840;DHT22;5979;50.800;4.904;2023-11-18T05:40:47;7.10;99.90
11840;DHT22;5979;50.800;4.904;2023-11-18T05:43:36;7.00;99.90
11840;DHT22;5979;50.800;4.904;2023-11-18T05:46:06;7.10;99.90
11840;DHT22;5979;50.800;4.904;2023-11-18T05:48:47;7.10;99.90
11840;DHT22;5979;50.800;4.904;2023-11-18T05:51:12;7.10;99.90
11840;DHT22;5979;50.800;4.904;2023-11-18T05:53:44;7.10;99.90
11840;DHT22;5979;50.800;4.904;2023-11-18T05:56:15;7.10;99.90
11840;DHT22;5979;50.800;4.904;2023-11-18T05:58:44;7.10;99.90
11840;DHT22;5979;50.800;4.904;2023-11-18T06:01:10;7.10;99.90
11840;DHT22;5979;50.800;4.904;2023-11-18T06:03:37;7.10;99.90
11840;DHT22;5979;50.800;4.904;2023-11-18T06:06:14;7.20;99.90
11840;DHT22;5979;50.800;4.904;2023-11-18T06:08:41;7.10;99.90
11840;DHT22;5979;50.800;4.904;2023-11-18T06:11:12;7.20;99.90
11840;DHT22;5979;50.800;4.904;2023-11-18T06:13:41;7.20;99.90
11840;DHT22;5979;50.800;4.904;2023-11-18T06:16:21;7.20;99.90
11840;DHT22;5979;50.800;4.904;2023-11-18T06:18:48;7.20;99.90
11840;DHT22;5979;50.800;4.904;2023-11-18T06:21:19;7.20;99.90
11840;DHT22;5979;50.800;4.904;2023-11-18T06:23:46;7.20;99.90
11840;DHT22;5979;50.800;4.904;2023-11-18T06:26:13;7.30;99.90
11840;DHT22;5979;50.800;4.904;2023-11-18T06:28:46;7.30;99.90
11840;DHT22;5979;50.800;4.904;2023-11-18T06:31:12;7.30;99.90
11840;DHT22;5979;50.800;4.904;2023-11-18T06:33:40;7.30;99.90
11840;DHT22;5979;50.800;4.904;2023-11-18T06:36:18;7.30;99.90
11840;DHT22;5979;50.800;4.904;2023-11-18T06:38:50;7.30;99.90
11840;DHT22;5979;50.800;4.904;2023-11-18T06:41:21;7.30;99.90
11840;DHT22;5979;50.800;4.904;2023-11-18T06:43:49;7.40;99.90
11840;DHT22;5979;50.800;4.904;2023-11-18T06:46:15;7.40;99.90
11840;DHT22;5979;50.800;4.904;2023-11-18T06:48:40;7.40;99.90
11840;DHT22;5979;50.800;4.904;2023-11-18T06:51:06;7.40;99.90
11840;DHT22;5979;50.800;4.904;2023-11-18T06:53:34;7.40;99.90
11840;DHT22;5979;50.800;4.904;2023-11-18T06:56:00;7.50;99.90
11840;DHT22;5979;50.800;4.904;2023-11-18T06:58:25;7.50;99.90
11840;DHT22;5979;50.800;4.904;2023-11-18T07:00:52;7.50;99.90
11840;DHT22;5979;50.800;4.904;2023-11-18T07:03:18;7.50;99.90
11840;DHT22;5979;50.800;4.904;2023-11-18T07:05:44;7.50;99.90
11840;DHT22;5979;50.800;4.904;2023-11-18T07:08:09;7.50;99.90
11840;DHT22;5979;50.800;4.904;2023-11-18T07:10:35;7.60;99.90
11840;DHT22;5979;50.800;4.904;2023-11-18T07:13:03;7.60;99.90
11840;DHT22;5979;50.800;4.904;2023-11-18T07:15:29;7.60;99.90
11840;DHT22;5979;50.800;4.904;2023-11-18T07:17:55;7.50;99.90
11840;DHT22;5979;50.800;4.904;2023-11-18T07:20:20;7.60;99.90
11840;DHT22;5979;50.800;4.904;2023-11-18T07:26:08;7.60;99.90
11840;DHT22;5979;50.800;4.904;2023-11-18T07:28:36;7.60;99.90
11840;DHT22;5979;50.800;4.904;2023-11-18T07:31:01;7.60;99.90
11840;DHT22;5979;50.800;4.904;2023-11-18T07:33:31;7.60;99.90
11840;DHT22;5979;50.800;4.904;2023-11-18T07:35:59;7.60;99.90
11840;DHT22;5979;50.800;4.904;2023-11-18T07:38:25;7.70;99.90
11840;DHT22;5979;50.800;4.904;2023-11-18T07:40:53;7.70;99.90
11840;DHT22;5979;50.800;4.904;2023-11-18T07:43:22;7.70;99.90
11840;DHT22;5979;50.800;4.904;2023-11-18T07:45:49;7.70;99.90
11840;DHT22;5979;50.800;4.904;2023-11-18T07:48:17;7.70;99.90
11840;DHT22;5979;50.800;4.904;2023-11-18T07:50:44;7.70;99.90
11840;DHT22;5979;50.800;4.904;2023-11-18T07:53:10;7.70;99.90
11840;DHT22;5979;50.800;4.904;2023-11-18T07:55:36;7.80;99.90
11840;DHT22;5979;50.800;4.904;2023-11-18T07:58:09;7.80;99.90
11840;DHT22;5979;50.800;4.904;2023-11-18T08:00:40;7.80;99.90
11840;DHT22;5979;50.800;4.904;2023-11-18T08:03:09;7.80;99.90
11840;DHT22;5979;50.800;4.904;2023-11-18T08:05:43;7.80;99.90
11840;DHT22;5979;50.800;4.904;2023-11-18T08:08:10;7.90;99.90
11840;DHT22;5979;50.800;4.904;2023-11-18T08:10:36;7.90;99.90
11840;DHT22;5979;50.800;4.904;2023-11-18T08:13:04;7.90;99.90
11840;DHT22;5979;50.800;4.904;2023-11-18T08:15:32;7.90;99.90
11840;DHT22;5979;50.800;4.904;2023-11-18T08:17:57;7.90;99.90
11840;DHT22;5979;50.800;4.904;2023-11-18T08:20:23;7.90;99.90
11840;DHT22;5979;50.800;4.904;2023-11-18T08:22:50;7.90;99.90
11840;DHT22;5979;50.800;4.904;2023-11-18T08:25:16;8.00;99.90
11840;DHT22;5979;50.800;4.904;2023-11-18T08:27:43;8.00;99.90
11840;DHT22;5979;50.800;4.904;2023-11-18T08:30:11;8.00;99.90
11840;DHT22;5979;50.800;4.904;2023-11-18T08:32:39;8.00;99.90
11840;DHT22;5979;50.800;4.904;2023-11-18T08:35:06;8.00;99.90
11840;DHT22;5979;50.800;4.904;2023-11-18T08:37:36;8.00;99.90
11840;DHT22;5979;50.800;4.904;2023-11-18T08:40:06;8.00;99.90
11840;DHT22;5979;50.800;4.904;2023-11-18T08:42:41;8.00;99.90
11840;DHT22;5979;50.800;4.904;2023-11-18T08:45:14;8.00;99.90
11840;DHT22;5979;50.800;4.904;2023-11-18T08:47:45;8.00;99.90
11840;DHT22;5979;50.800;4.904;2023-11-18T08:50:16;8.10;99.90
11840;DHT22;5979;50.800;4.904;2023-11-18T08:52:45;8.10;99.90
11840;DHT22;5979;50.800;4.904;2023-11-18T08:55:15;8.20;99.90
11840;DHT22;5979;50.800;4.904;2023-11-18T08:57:47;8.20;99.90
11840;DHT22;5979;50.800;4.904;2023-11-18T09:00:29;8.20;99.90
11840;DHT22;5979;50.800;4.904;2023-11-18T09:03:14;8.30;99.90
11840;DHT22;5979;50.800;4.904;2023-11-18T09:05:45;8.30;99.90
11840;DHT22;5979;50.800;4.904;2023-11-18T09:08:42;8.30;99.90
11840;DHT22;5979;50.800;4.904;2023-11-18T09:11:11;8.40;99.90
11840;DHT22;5979;50.800;4.904;2023-11-18T09:13:41;8.40;99.90
11840;DHT22;5979;50.800;4.904;2023-11-18T09:16:08;8.40;99.90
11840;DHT22;5979;50.800;4.904;2023-11-18T09:18:39;8.40;99.90
11840;DHT22;5979;50.800;4.904;2023-11-18T09:21:06;8.40;99.90
11840;DHT22;5979;50.800;4.904;2023-11-18T09:23:34;8.50;99.90
11840;DHT22;5979;50.800;4.904;2023-11-18T09:26:01;8.50;99.90
11840;DHT22;5979;50.800;4.904;2023-11-18T09:28:27;8.50;99.90
11840;DHT22;5979;50.800;4.904;2023-11-18T09:30:57;8.50;99.90
11840;DHT22;5979;50.800;4.904;2023-11-18T09:33:30;8.50;99.90
11840;DHT22;5979;50.800;4.904;2023-11-18T09:36:03;8.60;99.90
11840;DHT22;5979;50.800;4.904;2023-11-18T09:38:34;8.60;99.90
11840;DHT22;5979;50.800;4.904;2023-11-18T09:41:10;8.60;99.90
11840;DHT22;5979;50.800;4.904;2023-11-18T09:43:40;8.60;99.90
11840;DHT22;5979;50.800;4.904;2023-11-18T09:46:15;8.60;99.90
11840;DHT22;5979;50.800;4.904;2023-11-18T09:48:46;8.70;99.90
11840;DHT22;5979;50.800;4.904;2023-11-18T09:51:38;8.70;99.90
11840;DHT22;5979;50.800;4.904;2023-11-18T09:54:31;8.70;99.90
11840;DHT22;5979;50.800;4.904;2023-11-18T10:00:14;8.80;99.90
11840;DHT22;5979;50.800;4.904;2023-11-18T10:02:58;8.90;99.90
11840;DHT22;5979;50.800;4.904;2023-11-18T10:05:26;8.90;99.90
11840;DHT22;5979;50.800;4.904;2023-11-18T10:07:53;8.90;99.90
11840;DHT22;5979;50.800;4.904;2023-11-18T10:10:22;8.90;99.90
11840;DHT22;5979;50.800;4.904;2023-11-18T10:12:49;8.90;99.90
11840;DHT22;5979;50.800;4.904;2023-11-18T10:15:19;9.00;99.90
11840;DHT22;5979;50.800;4.904;2023-11-18T10:17:50;9.00;99.90
11840;DHT22;5979;50.800;4.904;2023-11-18T10:20:46;9.00;99.90
11840;DHT22;5979;50.800;4.904;2023-11-18T10:23:15;9.00;99.90
11840;DHT22;5979;50.800;4.904;2023-11-18T10:25:48;9.00;99.90
11840;DHT22;5979;50.800;4.904;2023-11-18T10:28:28;9.00;99.90
11840;DHT22;5979;50.800;4.904;2023-11-18T10:30:56;9.00;99.90
11840;DHT22;5979;50.800;4.904;2023-11-18T10:33:39;9.10;99.90
11840;DHT22;5979;50.800;4.904;2023-11-18T10:36:17;9.10;99.90
11840;DHT22;5979;50.800;4.904;2023-11-18T10:38:48;9.10;99.90
11840;DHT22;5979;50.800;4.904;2023-11-18T10:41:18;9.10;99.90
11840;DHT22;5979;50.800;4.904;2023-11-18T10:43:47;9.10;99.90
11840;DHT22;5979;50.800;4.904;2023-11-18T10:46:16;9.10;99.90
11840;DHT22;5979;50.800;4.904;2023-11-18T10:48:43;9.10;99.90
11840;DHT22;5979;50.800;4.904;2023-11-18T10:51:10;9.10;99.90
11840;DHT22;5979;50.800;4.904;2023-11-18T10:53:42;9.00;99.90
11840;DHT22;5979;50.800;4.904;2023-11-18T10:56:22;9.00;99.90
11840;DHT22;5979;50.800;4.904;2023-11-18T10:59:07;9.00;99.90
11840;DHT22;5979;50.800;4.904;2023-11-18T11:04:44;9.10;99.90
11840;DHT22;5979;50.800;4.904;2023-11-18T11:07:10;9.00;99.90
11840;DHT22;5979;50.800;4.904;2023-11-18T11:09:38;9.00;99.90
11840;DHT22;5979;50.800;4.904;2023-11-18T11:12:11;9.10;99.90
11840;DHT22;5979;50.800;4.904;2023-11-18T11:14:46;9.00;99.90
11840;DHT22;5979;50.800;4.904;2023-11-18T11:17:17;9.10;99.90
11840;DHT22;5979;50.800;4.904;2023-11-18T11:22:43;9.10;99.90
11840;DHT22;5979;50.800;4.904;2023-11-18T11:25:24;9.10;99.90
11840;DHT22;5979;50.800;4.904;2023-11-18T11:28:16;9.10;99.90
11840;DHT22;5979;50.800;4.904;2023-11-18T11:30:50;9.10;99.90
11840;DHT22;5979;50.800;4.904;2023-11-18T11:36:21;9.10;99.90
11840;DHT22;5979;50.800;4.904;2023-11-18T11:38:52;9.10;99.90
11840;DHT22;5979;50.800;4.904;2023-11-18T11:41:19;9.10;99.90
11840;DHT22;5979;50.800;4.904;2023-11-18T11:43:52;9.10;99.90
11840;DHT22;5979;50.800;4.904;2023-11-18T11:46:25;9.10;99.90
11840;DHT22;5979;50.800;4.904;2023-11-18T11:49:00;9.10;99.90
11840;DHT22;5979;50.800;4.904;2023-11-18T11:52:02;9.10;99.90
11840;DHT22;5979;50.800;4.904;2023-11-18T11:54:43;9.10;99.90
11840;DHT22;5979;50.800;4.904;2023-11-18T11:57:10;9.10;99.90
11840;DHT22;5979;50.800;4.904;2023-11-18T12:02:17;9.10;99.90
11840;DHT22;5979;50.800;4.904;2023-11-18T12:04:47;9.10;99.90
11840;DHT22;5979;50.800;4.904;2023-11-18T12:07:22;9.10;99.90
11840;DHT22;5979;50.800;4.904;2023-11-18T12:09:59;9.20;99.90
11840;DHT22;5979;50.800;4.904;2023-11-18T12:12:27;9.20;99.90
11840;DHT22;5979;50.800;4.904;2023-11-18T12:14:56;9.20;99.90
11840;DHT22;5979;50.800;4.904;2023-11-18T12:17:23;9.20;99.90
11840;DHT22;5979;50.800;4.904;2023-11-18T12:19:51;9.30;99.90
11840;DHT22;5979;50.800;4.904;2023-11-18T12:22:24;9.30;99.90
11840;DHT22;5979;50.800;4.904;2023-11-18T12:33:03;9.50;99.90
11840;DHT22;5979;50.800;4.904;2023-11-18T12:41:42;9.40;99.90
11840;DHT22;5979;50.800;4.904;2023-11-18T12:44:30;9.30;99.90
11840;DHT22;5979;50.800;4.904;2023-11-18T12:47:08;9.30;99.90
11840;DHT22;5979;50.800;4.904;2023-11-18T12:49:46;9.30;99.90
11840;DHT22;5979;50.800;4.904;2023-11-18T12:52:20;9.30;99.90
11840;DHT22;5979;50.800;4.904;2023-11-18T12:54:48;9.30;99.90
11840;DHT22;5979;50.800;4.904;2023-11-18T12:57:20;9.30;99.90
11840;DHT22;5979;50.800;4.904;2023-11-18T12:59:48;9.30;99.90
11840;DHT22;5979;50.800;4.904;2023-11-18T13:02:15;9.30;99.90
11840;DHT22;5979;50.800;4.904;2023-11-18T13:04:49;9.30;99.90
11840;DHT22;5979;50.800;4.904;2023-11-18T13:07:18;9.30;99.90
11840;DHT22;5979;50.800;4.904;2023-11-18T13:09:47;9.30;99.90
11840;DHT22;5979;50.800;4.904;2023-11-18T13:12:13;9.30;99.90
11840;DHT22;5979;50.800;4.904;2023-11-18T13:14:43;9.30;99.90
11840;DHT22;5979;50.800;4.904;2023-11-18T13:17:12;9.30;99.90
11840;DHT22;5979;50.800;4.904;2023-11-18T13:19:39;9.30;99.90
11840;DHT22;5979;50.800;4.904;2023-11-18T13:22:09;9.20;99.90
11840;DHT22;5979;50.800;4.904;2023-11-18T13:24:36;9.20;99.90
11840;DHT22;5979;50.800;4.904;2023-11-18T13:27:06;9.20;99.90
11840;DHT22;5979;50.800;4.904;2023-11-18T13:29:35;9.10;99.90
11840;DHT22;5979;50.800;4.904;2023-11-18T13:32:01;9.10;99.90
11840;DHT22;5979;50.800;4.904;2023-11-18T13:34:31;9.20;99.90
11840;DHT22;5979;50.800;4.904;2023-11-18T13:37:04;9.20;99.90
11840;DHT22;5979;50.800;4.904;2023-11-18T13:39:31;9.10;99.90
11840;DHT22;5979;50.800;4.904;2023-11-18T13:41:57;9.10;99.90
11840;DHT22;5979;50.800;4.904;2023-11-18T13:44:36;9.20;99.90
11840;DHT22;5979;50.800;4.904;2023-11-18T13:47:10;9.20;99.90
11840;DHT22;5979;50.800;4.904;2023-11-18T13:49:39;9.20;99.90
11840;DHT22;5979;50.800;4.904;2023-11-18T13:52:09;9.20;99.90
11840;DHT22;5979;50.800;4.904;2023-11-18T13:54:37;9.20;99.90
11840;DHT22;5979;50.800;4.904;2023-11-18T13:57:04;9.20;99.90
11840;DHT22;5979;50.800;4.904;2023-11-18T13:59:31;9.20;99.90
11840;DHT22;5979;50.800;4.904;2023-11-18T14:01:59;9.20;99.90
11840;DHT22;5979;50.800;4.904;2023-11-18T14:04:28;9.20;99.90
11840;DHT22;5979;50.800;4.904;2023-11-18T14:06:59;9.20;99.90
11840;DHT22;5979;50.800;4.904;2023-11-18T14:09:26;9.20;99.90
11840;DHT22;5979;50.800;4.904;2023-11-18T14:11:53;9.20;99.90
11840;DHT22;5979;50.800;4.904;2023-11-18T14:14:25;9.20;99.90
11840;DHT22;5979;50.800;4.904;2023-11-18T14:16:51;9.20;99.90
11840;DHT22;5979;50.800;4.904;2023-11-18T14:19:19;9.20;99.90
11840;DHT22;5979;50.800;4.904;2023-11-18T14:21:45;9.20;99.90
11840;DHT22;5979;50.800;4.904;2023-11-18T14:24:11;9.20;99.90
11840;DHT22;5979;50.800;4.904;2023-11-18T14:26:40;9.20;99.90
11840;DHT22;5979;50.800;4.904;2023-11-18T14:29:07;9.20;99.90
11840;DHT22;5979;50.800;4.904;2023-11-18T14:31:33;9.20;99.90
11840;DHT22;5979;50.800;4.904;2023-11-18T14:34:03;9.20;99.90
11840;DHT22;5979;50.800;4.904;2023-11-18T14:36:29;9.30;99.90
11840;DHT22;5979;50.800;4.904;2023-11-18T14:38:55;9.30;99.90
11840;DHT22;5979;50.800;4.904;2023-11-18T14:41:21;9.30;99.90
11840;DHT22;5979;50.800;4.904;2023-11-18T14:43:52;9.30;99.90
11840;DHT22;5979;50.800;4.904;2023-11-18T14:46:18;9.30;99.90
11840;DHT22;5979;50.800;4.904;2023-11-18T14:48:44;9.30;99.90
11840;DHT22;5979;50.800;4.904;2023-11-18T14:51:10;9.30;99.90
11840;DHT22;5979;50.800;4.904;2023-11-18T14:53:37;9.30;99.90
11840;DHT22;5979;50.800;4.904;2023-11-18T14:56:06;9.30;99.90
11840;DHT22;5979;50.800;4.904;2023-11-18T14:58:32;9.30;99.90
11840;DHT22;5979;50.800;4.904;2023-11-18T15:00:58;9.30;99.90
11840;DHT22;5979;50.800;4.904;2023-11-18T15:03:26;9.30;99.90
11840;DHT22;5979;50.800;4.904;2023-11-18T15:05:51;9.30;99.90
11840;DHT22;5979;50.800;4.904;2023-11-18T15:08:17;9.30;99.90
11840;DHT22;5979;50.800;4.904;2023-11-18T15:10:43;9.30;99.90
11840;DHT22;5979;50.800;4.904;2023-11-18T15:13:10;9.40;99.90
11840;DHT22;5979;50.800;4.904;2023-11-18T15:15:41;9.30;99.90
11840;DHT22;5979;50.800;4.904;2023-11-18T15:18:07;9.30;99.90
11840;DHT22;5979;50.800;4.904;2023-11-18T15:20:49;9.40;99.90
11840;DHT22;5979;50.800;4.904;2023-11-18T15:23:16;9.40;99.90
11840;DHT22;5979;50.800;4.904;2023-11-18T15:25:42;9.40;99.90
11840;DHT22;5979;50.800;4.904;2023-11-18T15:28:08;9.40;99.90
11840;DHT22;5979;50.800;4.904;2023-11-18T15:30:37;9.40;99.90
11840;DHT22;5979;50.800;4.904;2023-11-18T15:33:03;9.40;99.90
11840;DHT22;5979;50.800;4.904;2023-11-18T15:35:30;9.40;99.90
11840;DHT22;5979;50.800;4.904;2023-11-18T15:37:56;9.40;99.90
11840;DHT22;5979;50.800;4.904;2023-11-18T15:40:21;9.50;99.90
11840;DHT22;5979;50.800;4.904;2023-11-18T15:42:51;9.50;99.90
11840;DHT22;5979;50.800;4.904;2023-11-18T15:45:18;9.40;99.90
11840;DHT22;5979;50.800;4.904;2023-11-18T15:47:45;9.50;99.90
11840;DHT22;5979;50.800;4.904;2023-11-18T15:50:12;9.50;99.90
11840;DHT22;5979;50.800;4.904;2023-11-18T15:52:41;9.50;99.90
11840;DHT22;5979;50.800;4.904;2023-11-18T15:55:07;9.50;99.90
11840;DHT22;5979;50.800;4.904;2023-11-18T15:57:42;9.50;99.90
11840;DHT22;5979;50.800;4.904;2023-11-18T16:00:10;9.50;99.90
11840;DHT22;5979;50.800;4.904;2023-11-18T16:02:43;9.50;99.90
11840;DHT22;5979;50.800;4.904;2023-11-18T16:05:11;9.50;99.90
11840;DHT22;5979;50.800;4.904;2023-11-18T16:07:39;9.50;99.90
11840;DHT22;5979;50.800;4.904;2023-11-18T16:10:06;9.60;99.90
11840;DHT22;5979;50.800;4.904;2023-11-18T16:12:32;9.60;99.90
11840;DHT22;5979;50.800;4.904;2023-11-18T16:14:57;9.60;99.90
11840;DHT22;5979;50.800;4.904;2023-11-18T16:17:23;9.70;99.90
11840;DHT22;5979;50.800;4.904;2023-11-18T16:19:49;9.70;99.90
11840;DHT22;5979;50.800;4.904;2023-11-18T16:22:15;9.70;99.90
11840;DHT22;5979;50.800;4.904;2023-11-18T16:24:41;9.70;99.90
11840;DHT22;5979;50.800;4.904;2023-11-18T16:27:06;9.70;99.90
11840;DHT22;5979;50.800;4.904;2023-11-18T16:29:32;9.70;99.90
11840;DHT22;5979;50.800;4.904;2023-11-18T16:31:58;9.80;99.90
11840;DHT22;5979;50.800;4.904;2023-11-18T16:34:24;9.80;99.90
11840;DHT22;5979;50.800;4.904;2023-11-18T16:36:51;9.80;99.90
11840;DHT22;5979;50.800;4.904;2023-11-18T16:39:22;9.80;99.90
11840;DHT22;5979;50.800;4.904;2023-11-18T16:41:48;9.90;99.90
11840;DHT22;5979;50.800;4.904;2023-11-18T16:44:14;9.90;99.90
11840;DHT22;5979;50.800;4.904;2023-11-18T16:46:40;9.90;99.90